Time;durP1;ratioP1;P1;durP2;ratioP2;P2;SDS_P1;SDS_P2;PMS_P1;PMS_P2;Temp;Humidity;BMP_temperature;BMP_pressure;BME280_temperature;BME280_humidity;BME280_pressure;Samples;Min_cycle;Max_cycle;Signal;HPM_P1;HPM_P2
2023/10/29 00:02:01;;;;;;;10.20;2.30;;;12.40;99.90;;;;;;5049284;28;20029;-67
2023/10/29 00:04:35;;;;;;;4.05;1.25;;;12.30;99.90;;;;;;5045980;28;20086;-67
2023/10/29 00:07:04;;;;;;;2.58;1.30;;;12.30;99.90;;;;;;5045222;28;20033;-67
2023/10/29 00:09:32;;;;;;;8.20;2.03;;;12.30;99.90;;;;;;5048243;28;20117;-67
2023/10/29 00:12:03;;;;;;;8.73;2.03;;;12.30;99.90;;;;;;5048718;28;20025;-67
2023/10/29 00:14:31;;;;;;;4.07;1.45;;;12.30;99.90;;;;;;5048427;28;20029;-67
2023/10/29 00:16:56;;;;;;;3.67;1.45;;;12.30;99.90;;;;;;5046058;28;20052;-67
2023/10/29 00:19:26;;;;;;;4.90;1.77;;;12.30;99.90;;;;;;5046756;28;20075;-67
2023/10/29 00:21:52;;;;;;;5.85;1.30;;;12.30;99.90;;;;;;5048617;28;20064;-67
2023/10/29 00:24:17;;;;;;;4.72;1.38;;;12.30;99.90;;;;;;5047974;28;20068;-67
2023/10/29 00:26:45;;;;;;;3.90;1.27;;;12.30;99.90;;;;;;5047044;28;20033;-67
2023/10/29 00:29:11;;;;;;;3.05;1.48;;;12.20;99.90;;;;;;5048391;28;20368;-67
2023/10/29 00:31:39;;;;;;;3.92;1.25;;;12.30;99.90;;;;;;5049695;28;20060;-67
2023/10/29 00:34:09;;;;;;;3.78;1.50;;;12.30;99.90;;;;;;5051984;28;20525;-67
2023/10/29 00:36:35;;;;;;;10.45;1.55;;;12.30;99.90;;;;;;5051311;28;20037;-67
2023/10/29 00:39:00;;;;;;;3.25;1.20;;;12.30;99.90;;;;;;5048406;28;20124;-67
2023/10/29 00:41:29;;;;;;;3.55;1.55;;;12.30;99.90;;;;;;5050238;28;20063;-67
2023/10/29 00:43:54;;;;;;;6.55;1.80;;;12.40;99.90;;;;;;5051021;28;20499;-67
2023/10/29 00:46:23;;;;;;;7.00;1.40;;;12.30;99.90;;;;;;5050438;28;20031;-67
2023/10/29 00:48:51;;;;;;;2.95;0.90;;;12.30;99.90;;;;;;5045624;28;20021;-67
2023/10/29 00:51:22;;;;;;;5.95;1.35;;;12.30;99.90;;;;;;5050666;28;20052;-67
2023/10/29 00:53:51;;;;;;;6.68;1.20;;;12.30;99.90;;;;;;5046887;28;20033;-67
2023/10/29 00:56:18;;;;;;;3.33;1.30;;;12.30;99.90;;;;;;5052096;28;20029;-67
2023/10/29 00:58:46;;;;;;;4.17;1.47;;;12.30;99.90;;;;;;5048732;28;20028;-67
2023/10/29 01:01:14;;;;;;;5.20;1.48;;;12.30;99.90;;;;;;5048004;28;20277;-67
2023/10/29 01:03:40;;;;;;;4.97;1.75;;;12.30;99.90;;;;;;5051405;28;20036;-67
2023/10/29 01:06:08;;;;;;;4.18;1.42;;;12.40;99.90;;;;;;5050566;28;20112;-67
2023/10/29 01:08:33;;;;;;;6.22;1.60;;;12.40;99.90;;;;;;5047661;28;20043;-67
2023/10/29 01:10:59;;;;;;;4.88;1.80;;;12.30;99.90;;;;;;5049076;28;20498;-67
2023/10/29 01:13:27;;;;;;;6.00;1.25;;;12.30;99.90;;;;;;5048620;28;20124;-67
2023/10/29 01:15:55;;;;;;;;;;;12.40;99.90;;;;;;5050335;28;20032;-67
2023/10/29 01:18:21;;;;;;;4.30;1.13;;;12.40;99.90;;;;;;5049369;28;19913;-67
2023/10/29 01:20:46;;;;;;;3.33;1.00;;;12.40;99.90;;;;;;5048522;28;20116;-67
2023/10/29 01:23:14;;;;;;;3.72;1.25;;;12.40;99.90;;;;;;5051199;28;20059;-67
2023/10/29 01:25:43;;;;;;;4.47;1.10;;;12.40;99.90;;;;;;5048129;28;20025;-67
2023/10/29 01:28:09;;;;;;;7.53;1.75;;;12.40;99.90;;;;;;5044685;28;20025;-67
2023/10/29 01:30:36;;;;;;;4.45;1.42;;;12.50;99.90;;;;;;5048766;28;20036;-67
2023/10/29 01:33:04;;;;;;;4.30;1.48;;;12.40;99.90;;;;;;5050482;28;20021;-67
2023/10/29 01:35:30;;;;;;;3.78;1.30;;;12.50;99.90;;;;;;5050331;28;20029;-67
2023/10/29 01:37:58;;;;;;;2.70;1.23;;;12.50;99.90;;;;;;5047791;28;20039;-67
2023/10/29 01:40:23;;;;;;;;;;;12.50;99.90;;;;;;5047327;28;20029;-67
2023/10/29 01:42:49;;;;;;;5.40;1.42;;;12.50;99.90;;;;;;5049812;28;19915;-67
2023/10/29 01:45:16;;;;;;;2.08;1.00;;;12.50;99.90;;;;;;5050288;28;20040;-67
2023/10/29 01:47:42;;;;;;;3.77;1.27;;;12.50;99.90;;;;;;5049142;28;20033;-67
2023/10/29 01:50:11;;;;;;;2.47;1.40;;;12.60;99.90;;;;;;5049170;28;20095;-67
2023/10/29 01:52:38;;;;;;;4.88;1.40;;;12.50;99.90;;;;;;5050249;28;20025;-67
2023/10/29 01:55:08;;;;;;;3.50;1.30;;;12.60;99.90;;;;;;5048580;28;20024;-67
2023/10/29 01:57:35;;;;;;;4.88;1.17;;;12.60;99.90;;;;;;5046170;28;20029;-67
2023/10/29 02:00:05;;;;;;;3.53;1.30;;;12.60;99.90;;;;;;5045475;28;20100;-67
2023/10/29 02:02:31;;;;;;;3.72;0.90;;;12.60;99.90;;;;;;5048745;28;20044;-67
2023/10/29 02:04:57;;;;;;;2.40;1.08;;;12.60;99.90;;;;;;5050039;28;20075;-67
2023/10/29 02:07:25;;;;;;;3.92;1.00;;;12.60;99.90;;;;;;5047992;28;20048;-67
2023/10/29 02:09:55;;;;;;;2.55;1.00;;;12.60;99.90;;;;;;5049852;28;20090;-67
2023/10/29 02:12:20;;;;;;;8.32;1.10;;;12.60;99.90;;;;;;5048924;28;20061;-67
2023/10/29 02:14:48;;;;;;;5.07;1.10;;;12.70;99.90;;;;;;5048345;28;20053;-67
2023/10/29 02:17:14;;;;;;;;;;;12.70;99.90;;;;;;5046323;28;20120;-67
2023/10/29 02:19:42;;;;;;;3.42;1.40;;;12.60;99.90;;;;;;5048358;28;19916;-67
2023/10/29 02:22:08;;;;;;;3.20;1.30;;;12.70;99.90;;;;;;5049210;28;20045;-67
2023/10/29 02:24:33;;;;;;;1.98;0.70;;;12.70;99.90;;;;;;5047938;28;20025;-67
2023/10/29 02:26:59;;;;;;;3.05;1.00;;;12.70;99.90;;;;;;5047554;28;20029;-67
2023/10/29 02:29:27;;;;;;;1.55;0.90;;;12.70;99.90;;;;;;5049585;28;20434;-67
2023/10/29 02:31:57;;;;;;;4.47;1.23;;;12.70;99.90;;;;;;5049238;28;20523;-67
2023/10/29 02:34:22;;;;;;;2.47;0.90;;;12.70;99.90;;;;;;5049058;28;20041;-67
2023/10/29 02:36:48;;;;;;;4.47;1.17;;;12.70;99.90;;;;;;5050004;28;20029;-67
2023/10/29 02:39:16;;;;;;;4.75;1.23;;;12.70;99.90;;;;;;5046917;28;20031;-67
2023/10/29 02:41:41;;;;;;;7.78;1.40;;;12.70;99.90;;;;;;5049098;28;20028;-67
2023/10/29 02:44:09;;;;;;;2.42;0.85;;;12.70;99.90;;;;;;5049090;28;20033;-67
2023/10/29 02:46:37;;;;;;;3.00;1.00;;;12.70;99.90;;;;;;5046626;28;20562;-67
2023/10/29 02:49:08;;;;;;;5.63;1.15;;;12.70;99.90;;;;;;5045051;28;20063;-67
2023/10/29 02:51:36;;;;;;;2.75;1.10;;;12.70;99.90;;;;;;5046405;28;20087;-67
2023/10/29 02:54:04;;;;;;;;;;;12.70;99.90;;;;;;5045637;28;20053;-67
2023/10/29 02:56:32;;;;;;;5.00;0.90;;;12.70;99.90;;;;;;5049344;28;20424;-67
2023/10/29 02:59:01;;;;;;;2.42;1.10;;;12.70;99.90;;;;;;5047302;28;20033;-67
2023/10/29 03:01:29;;;;;;;1.38;0.90;;;12.70;99.90;;;;;;5043632;28;20127;-67
2023/10/29 03:03:54;;;;;;;4.10;0.90;;;12.70;99.90;;;;;;5047966;28;20430;-67
2023/10/29 03:06:20;;;;;;;1.10;0.80;;;12.70;99.90;;;;;;5047735;28;20488;-67
2023/10/29 03:08:46;;;;;;;1.20;0.68;;;12.70;99.90;;;;;;5046167;28;20463;-67
2023/10/29 03:11:14;;;;;;;3.40;1.08;;;12.80;99.90;;;;;;5048054;28;20371;-67
2023/10/29 03:13:44;;;;;;;4.70;1.17;;;12.80;99.90;;;;;;5048227;28;20399;-67
2023/10/29 03:16:10;;;;;;;4.55;1.00;;;12.80;99.90;;;;;;5049983;28;20021;-67
2023/10/29 03:18:40;;;;;;;3.63;0.85;;;12.80;99.90;;;;;;5048282;28;20078;-67
2023/10/29 03:21:06;;;;;;;2.88;1.33;;;12.80;99.90;;;;;;5048458;28;20089;-67
2023/10/29 03:23:31;;;;;;;1.17;0.93;;;12.80;99.90;;;;;;5047477;28;20133;-67
2023/10/29 03:26:05;;;;;;;1.67;0.82;;;12.80;99.90;;;;;;5050760;28;20032;-67
2023/10/29 03:28:31;;;;;;;0.85;0.70;;;12.80;99.90;;;;;;5044188;28;20029;-67
2023/10/29 03:30:59;;;;;;;1.60;0.85;;;12.80;99.90;;;;;;5045590;28;20053;-67
2023/10/29 03:33:26;;;;;;;;;;;12.80;99.90;;;;;;5047383;28;20072;-67
2023/10/29 03:35:52;;;;;;;1.45;0.80;;;12.80;99.90;;;;;;5047646;28;19954;-67
2023/10/29 03:38:18;;;;;;;2.92;1.00;;;12.90;99.90;;;;;;5047902;28;20052;-67
2023/10/29 03:40:46;;;;;;;2.70;1.00;;;12.80;99.90;;;;;;5047807;28;20064;-67
2023/10/29 03:43:11;;;;;;;1.42;0.88;;;12.80;99.90;;;;;;5047146;28;20029;-67
2023/10/29 03:45:37;;;;;;;13.85;1.00;;;12.90;99.90;;;;;;5046252;28;20033;-67
2023/10/29 03:48:03;;;;;;;3.08;0.80;;;12.80;99.90;;;;;;5046409;28;20098;-67
2023/10/29 03:50:28;;;;;;;2.05;0.98;;;12.90;99.90;;;;;;5046823;28;20043;-67
2023/10/29 03:52:56;;;;;;;3.03;0.75;;;12.80;99.90;;;;;;5045899;28;20021;-67
2023/10/29 03:55:24;;;;;;;4.20;1.00;;;12.80;99.90;;;;;;5049021;28;20052;-67
2023/10/29 03:57:53;;;;;;;1.73;0.88;;;12.90;99.90;;;;;;5047142;28;20039;-67
2023/10/29 04:00:21;;;;;;;2.58;1.00;;;12.90;99.90;;;;;;5040502;28;20094;-70
2023/10/29 04:02:49;;;;;;;10.43;1.15;;;12.90;99.90;;;;;;5044731;28;20143;-69
2023/10/29 04:05:16;;;;;;;4.53;1.20;;;12.90;99.90;;;;;;5050215;28;20037;-69
2023/10/29 04:07:41;;;;;;;2.47;1.10;;;12.90;99.90;;;;;;5050789;28;20025;-69
2023/10/29 04:10:10;;;;;;;7.28;1.67;;;12.90;99.90;;;;;;5049219;28;20026;-69
2023/10/29 04:12:35;;;;;;;3.45;1.23;;;13.00;99.90;;;;;;5051072;28;20491;-69
2023/10/29 04:15:01;;;;;;;6.68;1.02;;;13.00;99.90;;;;;;5053004;28;20043;-69
2023/10/29 04:17:27;;;;;;;4.40;1.40;;;13.00;99.90;;;;;;5047827;28;20036;-69
2023/10/29 04:19:55;;;;;;;4.55;1.20;;;13.00;99.90;;;;;;5047920;28;20021;-69
2023/10/29 04:22:22;;;;;;;5.32;1.23;;;13.00;99.90;;;;;;5050550;28;20535;-69
2023/10/29 04:24:50;;;;;;;7.97;1.50;;;13.00;99.90;;;;;;5050242;28;20094;-69
2023/10/29 04:27:16;;;;;;;5.03;0.90;;;13.00;99.90;;;;;;5051002;28;20024;-69
2023/10/29 04:29:42;;;;;;;9.45;1.20;;;13.00;99.90;;;;;;5050371;28;20026;-69
2023/10/29 04:32:08;;;;;;;1.60;1.02;;;13.10;99.90;;;;;;5048503;28;20667;-69
2023/10/29 04:34:36;;;;;;;2.38;1.00;;;13.10;99.90;;;;;;5049794;28;20021;-69
2023/10/29 04:37:02;;;;;;;;;;;13.10;99.90;;;;;;5051864;28;20024;-69
2023/10/29 04:39:30;;;;;;;1.85;1.20;;;13.10;99.90;;;;;;5050271;28;19916;-70
2023/10/29 04:41:56;;;;;;;2.10;1.05;;;13.10;99.90;;;;;;5050713;28;20064;-69
2023/10/29 04:44:24;;;;;;;3.15;1.05;;;13.10;99.90;;;;;;5047690;28;20060;-69
2023/10/29 04:46:49;;;;;;;;;;;13.10;99.90;;;;;;5051095;28;20025;-69
2023/10/29 04:49:17;;;;;;;3.33;1.27;;;13.10;99.90;;;;;;5048489;28;19919;-69
2023/10/29 04:51:45;;;;;;;10.95;1.23;;;13.10;99.90;;;;;;5049438;28;20021;-69
2023/10/29 04:54:12;;;;;;;;;;;13.10;99.90;;;;;;5048231;28;20075;-69
2023/10/29 04:56:40;;;;;;;2.67;1.02;;;13.10;99.90;;;;;;5049364;28;19955;-69
2023/10/29 04:59:07;;;;;;;4.15;1.00;;;13.10;99.90;;;;;;5046024;28;20095;-69
2023/10/29 05:01:32;;;;;;;5.30;0.90;;;13.10;99.90;;;;;;5047329;28;20025;-69
2023/10/29 05:03:58;;;;;;;3.08;0.82;;;13.10;99.90;;;;;;5046550;28;20471;-69
2023/10/29 05:06:26;;;;;;;3.35;1.35;;;13.10;99.90;;;;;;5050442;28;20102;-69
2023/10/29 05:08:51;;;;;;;;;;;13.20;99.90;;;;;;5048882;28;20452;-69
2023/10/29 05:11:19;;;;;;;1.92;0.85;;;13.20;99.90;;;;;;5051560;28;19948;-69
2023/10/29 05:13:47;;;;;;;4.05;0.90;;;13.20;99.90;;;;;;5051883;28;20494;-69
2023/10/29 05:16:15;;;;;;;1.65;0.70;;;13.20;99.90;;;;;;5049399;28;20446;-69
2023/10/29 05:18:40;;;;;;;2.70;1.27;;;13.20;99.90;;;;;;5051342;28;20047;-69
2023/10/29 05:21:09;;;;;;;3.10;0.90;;;13.20;99.90;;;;;;5049521;28;20056;-69
2023/10/29 05:23:35;;;;;;;1.95;0.90;;;13.30;99.90;;;;;;5047739;28;20094;-69
2023/10/29 05:26:00;;;;;;;3.20;0.85;;;13.20;99.90;;;;;;5050470;28;20024;-69
2023/10/29 05:28:26;;;;;;;2.53;0.80;;;13.20;99.90;;;;;;5048896;28;20025;-69
2023/10/29 05:30:55;;;;;;;3.80;0.90;;;13.30;99.90;;;;;;5050993;28;20028;-69
2023/10/29 05:33:21;;;;;;;3.80;0.98;;;13.30;99.90;;;;;;5048976;28;20120;-70
2023/10/29 05:35:51;;;;;;;3.67;1.20;;;13.40;99.90;;;;;;5048444;28;20096;-69
2023/10/29 05:38:19;;;;;;;6.57;0.70;;;13.40;99.90;;;;;;5050282;28;20021;-69
2023/10/29 05:40:45;;;;;;;1.75;0.75;;;13.30;99.90;;;;;;5050132;28;20021;-69
2023/10/29 05:43:13;;;;;;;1.63;0.70;;;13.30;99.90;;;;;;5048680;28;20390;-69
2023/10/29 05:45:40;;;;;;;;;;;13.40;99.90;;;;;;5048070;28;20502;-69
2023/10/29 05:48:06;;;;;;;1.48;0.77;;;13.40;99.90;;;;;;5046676;28;19909;-69
2023/10/29 05:50:31;;;;;;;2.35;0.90;;;13.40;99.90;;;;;;5046705;28;20037;-69
2023/10/29 05:52:59;;;;;;;1.83;0.75;;;13.40;99.90;;;;;;5046486;28;20025;-70
2023/10/29 05:55:25;;;;;;;;;;;13.40;99.90;;;;;;5049188;28;20024;-69
2023/10/29 05:57:53;;;;;;;1.83;0.82;;;13.40;99.90;;;;;;5049515;28;19962;-69
2023/10/29 06:00:19;;;;;;;1.73;0.70;;;13.40;99.90;;;;;;5048547;28;20106;-69
2023/10/29 06:02:44;;;;;;;2.63;0.80;;;13.40;99.90;;;;;;5047616;28;20840;-69
2023/10/29 06:05:10;;;;;;;2.08;0.85;;;13.40;99.90;;;;;;5048267;28;20542;-69
2023/10/29 06:07:42;;;;;;;4.85;0.90;;;13.40;99.90;;;;;;5048440;28;20064;-69
2023/10/29 06:10:09;;;;;;;4.90;0.70;;;13.50;99.90;;;;;;5048791;28;20112;-69
2023/10/29 06:12:35;;;;;;;1.65;0.82;;;13.40;99.90;;;;;;5047070;28;20029;-69
2023/10/29 06:15:01;;;;;;;2.42;0.80;;;13.50;99.90;;;;;;5049874;28;20122;-69
2023/10/29 06:17:28;;;;;;;0.93;0.70;;;13.50;99.90;;;;;;5044111;28;20495;-69
2023/10/29 06:19:54;;;;;;;1.20;0.60;;;13.50;99.90;;;;;;5046002;28;20021;-69
2023/10/29 06:22:19;;;;;;;1.65;0.75;;;13.50;99.90;;;;;;5048658;28;20086;-69
2023/10/29 06:24:48;;;;;;;0.63;0.57;;;13.50;99.90;;;;;;5047689;28;20032;-69
2023/10/29 06:27:14;;;;;;;2.97;0.80;;;13.60;99.90;;;;;;5046916;28;20021;-69
2023/10/29 06:29:39;;;;;;;3.15;1.08;;;13.60;99.90;;;;;;5049459;28;20368;-69
2023/10/29 06:32:05;;;;;;;5.53;0.88;;;13.60;99.90;;;;;;5049447;28;20025;-70
2023/10/29 06:34:30;;;;;;;0.85;0.70;;;13.60;99.90;;;;;;5049107;28;20505;-69
2023/10/29 06:36:58;;;;;;;2.63;0.80;;;13.60;99.90;;;;;;5046655;28;20024;-69
2023/10/29 06:39:24;;;;;;;12.18;1.15;;;13.60;99.90;;;;;;5046112;28;20031;-72
2023/10/29 06:41:49;;;;;;;1.75;0.80;;;13.60;99.90;;;;;;5047101;28;20112;-70
2023/10/29 06:44:15;;;;;;;6.28;0.80;;;13.70;99.90;;;;;;5051081;28;20178;-70
2023/10/29 06:46:45;;;;;;;2.78;0.90;;;13.70;99.90;;;;;;5046024;28;20025;-69
2023/10/29 06:49:13;;;;;;;2.80;0.90;;;13.70;99.90;;;;;;5047700;28;20475;-69
2023/10/29 06:51:41;;;;;;;6.78;1.35;;;13.70;99.90;;;;;;5046240;28;20048;-69
2023/10/29 06:54:07;;;;;;;;;;;13.80;99.90;;;;;;5047057;28;20087;-70
2023/10/29 06:56:34;;;;;;;2.03;0.98;;;13.80;99.90;;;;;;5048892;28;20366;-70
2023/10/29 06:59:00;;;;;;;1.08;0.60;;;13.80;99.90;;;;;;5043110;28;20036;-70
2023/10/29 07:01:28;;;;;;;2.28;0.82;;;13.80;99.90;;;;;;5045364;28;20032;-69
2023/10/29 07:03:54;;;;;;;3.40;0.73;;;13.80;99.90;;;;;;5044204;28;20111;-70
2023/10/29 07:06:24;;;;;;;6.50;1.10;;;13.90;99.90;;;;;;5045014;28;20295;-70
2023/10/29 07:08:52;;;;;;;2.20;0.82;;;13.90;99.90;;;;;;5043811;28;20731;-70
2023/10/29 07:11:19;;;;;;;4.28;0.85;;;13.90;99.90;;;;;;5047932;28;20029;-70
2023/10/29 07:13:47;;;;;;;1.75;0.60;;;13.90;99.90;;;;;;5047619;28;20033;-70
2023/10/29 07:16:16;;;;;;;5.15;0.57;;;14.00;99.90;;;;;;5043964;28;20387;-70
2023/10/29 07:18:42;;;;;;;1.75;1.27;;;14.00;99.90;;;;;;5048555;28;20039;-71
2023/10/29 07:21:08;;;;;;;1.00;0.60;;;14.00;99.90;;;;;;5049573;28;20037;-70
2023/10/29 07:23:33;;;;;;;1.55;0.77;;;14.00;99.90;;;;;;5046099;28;20033;-70
2023/10/29 07:25:59;;;;;;;1.73;0.57;;;14.00;99.90;;;;;;5047917;28;20091;-70
2023/10/29 07:28:24;;;;;;;3.72;0.75;;;14.00;99.90;;;;;;5047348;28;20091;-70
2023/10/29 07:30:52;;;;;;;2.15;0.57;;;14.00;99.90;;;;;;5035058;28;20041;-69
2023/10/29 07:33:18;;;;;;;1.23;0.68;;;14.00;99.90;;;;;;5045935;28;20401;-69
2023/10/29 07:35:46;;;;;;;5.57;0.95;;;14.00;99.90;;;;;;5047840;28;20040;-69
2023/10/29 07:38:11;;;;;;;;;;;14.00;99.90;;;;;;5047669;28;20418;-69
2023/10/29 07:40:39;;;;;;;2.88;0.70;;;14.10;99.90;;;;;;5043036;28;19908;-68
2023/10/29 07:43:05;;;;;;;3.75;1.02;;;14.10;99.90;;;;;;5047284;28;20672;-69
2023/10/29 07:45:33;;;;;;;2.35;0.80;;;14.10;99.90;;;;;;5049309;28;20036;-69
2023/10/29 07:48:01;;;;;;;3.30;1.27;;;14.10;99.90;;;;;;5047831;28;20083;-69
2023/10/29 07:50:27;;;;;;;3.88;0.80;;;14.10;99.90;;;;;;5045162;28;20029;-69
2023/10/29 07:52:52;;;;;;;5.18;1.08;;;14.10;99.90;;;;;;5045960;28;20072;-68
2023/10/29 07:55:20;;;;;;;4.70;1.20;;;14.20;99.90;;;;;;5047987;28;20036;-69
2023/10/29 07:57:49;;;;;;;2.72;0.70;;;14.20;99.90;;;;;;5048168;28;20472;-69
2023/10/29 08:00:15;;;;;;;2.33;0.80;;;14.20;99.90;;;;;;5043402;28;20036;-69
2023/10/29 08:02:44;;;;;;;2.75;0.90;;;14.20;99.90;;;;;;5047157;28;20479;-69
2023/10/29 08:05:14;;;;;;;0.88;0.77;;;14.20;99.90;;;;;;5046665;28;20029;-69
2023/10/29 08:07:40;;;;;;;1.85;0.70;;;14.20;99.90;;;;;;5047523;28;20029;-69
2023/10/29 08:10:06;;;;;;;2.28;0.63;;;14.20;99.90;;;;;;5046809;28;20055;-68
2023/10/29 08:12:34;;;;;;;3.78;0.75;;;14.20;99.90;;;;;;5048070;28;20409;-70
2023/10/29 08:15:02;;;;;;;1.73;0.88;;;14.20;99.90;;;;;;5045189;28;20032;-70
2023/10/29 08:17:29;;;;;;;4.00;0.80;;;14.20;99.90;;;;;;5047704;28;20433;-69
2023/10/29 08:19:54;;;;;;;4.05;0.90;;;14.20;99.90;;;;;;5045446;28;20037;-69
2023/10/29 08:22:20;;;;;;;3.67;0.95;;;14.20;99.90;;;;;;5046345;28;20506;-69
2023/10/29 08:24:47;;;;;;;0.70;0.60;;;14.20;99.90;;;;;;5046518;28;20072;-70
2023/10/29 08:27:12;;;;;;;4.07;0.80;;;14.20;99.90;;;;;;5044926;28;20178;-69
2023/10/29 08:29:41;;;;;;;3.28;0.82;;;14.30;99.90;;;;;;5047809;28;20456;-70
2023/10/29 08:32:07;;;;;;;1.35;0.52;;;14.30;99.90;;;;;;5048086;28;20546;-69
2023/10/29 08:34:33;;;;;;;3.30;0.80;;;14.30;99.90;;;;;;5047647;28;20029;-70
2023/10/29 08:37:00;;;;;;;4.22;0.93;;;14.30;99.90;;;;;;5046278;28;20387;-70
2023/10/29 08:39:29;;;;;;;1.33;0.55;;;14.30;99.90;;;;;;5047500;28;20697;-70
2023/10/29 08:41:55;;;;;;;1.90;0.57;;;14.30;99.90;;;;;;5046653;28;20033;-69
2023/10/29 08:44:23;;;;;;;3.40;0.73;;;14.30;99.90;;;;;;5045461;28;20040;-69
2023/10/29 08:46:51;;;;;;;2.78;0.80;;;14.30;99.90;;;;;;5041111;28;20037;-69
2023/10/29 08:49:16;;;;;;;1.00;0.70;;;14.40;99.90;;;;;;5047254;28;20033;-69
2023/10/29 08:51:44;;;;;;;1.40;1.00;;;14.40;99.90;;;;;;5044178;28;20030;-69
2023/10/29 08:54:15;;;;;;;3.38;0.98;;;14.40;99.90;;;;;;5048018;28;20037;-70
2023/10/29 08:56:40;;;;;;;3.10;0.90;;;14.50;99.90;;;;;;5049491;28;20086;-70
2023/10/29 08:59:06;;;;;;;3.33;0.80;;;14.50;99.90;;;;;;5051598;28;20028;-70
2023/10/29 09:01:32;;;;;;;1.20;0.50;;;14.50;99.90;;;;;;5049976;28;20056;-70
2023/10/29 09:04:00;;;;;;;0.98;0.60;;;14.60;99.90;;;;;;5049125;28;20029;-70
2023/10/29 09:06:28;;;;;;;4.28;0.70;;;14.60;99.90;;;;;;5050518;28;20036;-70
2023/10/29 09:08:54;;;;;;;2.53;0.70;;;14.60;99.90;;;;;;5050063;28;20144;-70
2023/10/29 09:11:19;;;;;;;2.90;0.93;;;14.60;99.90;;;;;;5048444;28;20537;-70
2023/10/29 09:13:47;;;;;;;4.90;0.68;;;14.70;99.90;;;;;;5049874;28;20036;-69
2023/10/29 09:16:13;;;;;;;3.15;0.68;;;14.80;99.90;;;;;;5050720;28;20060;-70
2023/10/29 09:18:40;;;;;;;3.33;0.75;;;14.90;99.90;;;;;;5051529;28;20072;-69
2023/10/29 09:21:05;;;;;;;2.00;0.47;;;15.00;99.90;;;;;;5050505;28;20029;-69
2023/10/29 09:23:33;;;;;;;1.45;0.68;;;15.00;99.90;;;;;;5046872;28;20036;-69
2023/10/29 09:25:59;;;;;;;;;;;15.10;99.90;;;;;;5047755;28;20032;-69
2023/10/29 09:28:26;;;;;;;1.95;0.57;;;15.20;99.90;;;;;;5052193;28;19912;-70
2023/10/29 09:30:51;;;;;;;2.17;0.60;;;15.30;99.90;;;;;;5047828;28;20620;-69
2023/10/29 09:33:19;;;;;;;5.80;1.20;;;15.40;99.90;;;;;;5049641;28;20029;-67
2023/10/29 09:35:47;;;;;;;2.55;0.65;;;15.40;99.90;;;;;;5050738;28;20116;-67
2023/10/29 09:38:16;;;;;;;;;;;15.40;99.90;;;;;;5050500;28;20492;-68
2023/10/29 09:40:41;;;;;;;2.67;0.70;;;15.50;99.90;;;;;;5048640;28;19915;-68
2023/10/29 09:43:11;;;;;;;2.50;0.60;;;15.60;99.90;;;;;;5050602;28;20025;-68
2023/10/29 09:45:46;;;;;;;0.95;0.68;;;15.60;99.90;;;;;;5047032;28;20059;-68
2023/10/29 09:48:17;;;;;;;0.50;0.40;;;15.60;99.90;;;;;;5047492;28;20499;-68
2023/10/29 09:50:44;;;;;;;1.15;0.43;;;15.60;99.90;;;;;;5047850;28;20025;-68
2023/10/29 09:53:15;;;;;;;0.95;0.52;;;15.60;99.90;;;;;;5048727;28;20032;-68
2023/10/29 09:55:40;;;;;;;0.88;0.50;;;15.60;99.90;;;;;;5051586;28;20090;-68
2023/10/29 09:58:06;;;;;;;3.90;0.75;;;15.60;99.90;;;;;;5048322;28;20070;-68
2023/10/29 10:00:32;;;;;;;0.57;0.43;;;15.60;99.90;;;;;;5048609;28;20466;-68
2023/10/29 10:02:59;;;;;;;0.93;0.47;;;15.60;99.90;;;;;;5047938;28;20055;-68
2023/10/29 10:05:29;;;;;;;1.35;0.60;;;15.60;99.90;;;;;;5048368;28;20027;-68
2023/10/29 10:07:55;;;;;;;2.35;0.80;;;15.60;99.90;;;;;;5047138;28;20017;-68
2023/10/29 10:10:24;;;;;;;1.80;0.93;;;15.60;99.90;;;;;;5049586;28;20040;-68
2023/10/29 10:12:51;;;;;;;5.47;0.80;;;15.60;99.90;;;;;;5047837;28;20036;-68
2023/10/29 10:15:20;;;;;;;4.88;0.60;;;15.70;99.90;;;;;;5044867;28;20029;-68
2023/10/29 10:17:57;;;;;;;4.60;0.75;;;15.70;99.90;;;;;;5046328;28;20029;-68
2023/10/29 10:20:22;;;;;;;0.88;0.60;;;15.70;99.90;;;;;;5045255;28;20033;-68
2023/10/29 10:23:01;;;;;;;2.22;0.40;;;15.70;99.90;;;;;;5043394;28;20043;-68
2023/10/29 10:25:28;;;;;;;1.60;0.57;;;15.60;99.90;;;;;;5049524;28;20053;-68
2023/10/29 10:27:58;;;;;;;2.25;0.60;;;15.70;99.90;;;;;;5048901;28;20103;-70
2023/10/29 10:30:30;;;;;;;2.10;0.80;;;15.70;99.90;;;;;;5046222;28;20084;-70
2023/10/29 10:33:18;;;;;;;0.95;0.40;;;15.70;99.90;;;;;;5052264;28;20079;-70
2023/10/29 10:35:51;;;;;;;2.22;0.60;;;15.70;99.90;;;;;;5048474;28;20496;-70
2023/10/29 10:38:19;;;;;;;1.85;0.40;;;15.70;99.90;;;;;;5049497;28;20083;-70
2023/10/29 10:40:46;;;;;;;2.45;0.60;;;15.70;99.90;;;;;;5051283;28;20052;-70
2023/10/29 10:43:20;;;;;;;2.08;0.75;;;15.70;99.90;;;;;;5048946;28;20025;-70
2023/10/29 10:45:50;;;;;;;6.53;0.90;;;15.70;99.90;;;;;;5049601;28;20021;-70
2023/10/29 10:48:17;;;;;;;1.05;0.60;;;15.70;99.90;;;;;;5049294;28;20033;-70
2023/10/29 10:50:43;;;;;;;1.83;0.43;;;15.80;99.90;;;;;;5048841;28;20510;-70
2023/10/29 10:53:09;;;;;;;2.10;0.43;;;15.90;99.90;;;;;;5048818;28;20104;-70
2023/10/29 10:55:36;;;;;;;2.45;0.50;;;16.00;99.90;;;;;;5047805;28;20055;-70
2023/10/29 10:58:03;;;;;;;1.17;0.35;;;16.00;99.90;;;;;;5049072;28;20078;-70
2023/10/29 11:00:34;;;;;;;4.07;0.80;;;16.00;99.90;;;;;;5047802;28;20087;-70
2023/10/29 11:03:00;;;;;;;2.55;0.60;;;16.00;99.90;;;;;;5050133;28;20056;-70
2023/10/29 11:05:30;;;;;;;2.10;0.43;;;16.00;99.90;;;;;;5048731;28;20063;-70
2023/10/29 11:07:57;;;;;;;1.67;0.70;;;15.90;99.90;;;;;;5052706;28;20021;-70
2023/10/29 11:10:25;;;;;;;4.27;0.60;;;15.90;99.90;;;;;;5049611;28;20066;-70
2023/10/29 11:12:51;;;;;;;0.88;0.40;;;15.90;99.90;;;;;;5043765;28;20021;-70
2023/10/29 11:15:23;;;;;;;4.55;0.50;;;15.90;99.90;;;;;;5047834;28;20345;-70
2023/10/29 11:17:53;;;;;;;2.90;0.60;;;15.90;99.90;;;;;;5046470;28;20132;-70
2023/10/29 11:20:41;;;;;;;2.42;0.57;;;15.90;99.90;;;;;;5049083;28;20483;-70
2023/10/29 11:23:08;;;;;;;1.13;0.45;;;15.90;99.90;;;;;;5051589;28;20056;-70
2023/10/29 11:25:34;;;;;;;1.60;0.80;;;15.90;99.90;;;;;;5048842;28;20031;-69
2023/10/29 11:28:03;;;;;;;0.80;0.60;;;15.90;99.90;;;;;;5049252;28;20075;-70
2023/10/29 11:30:28;;;;;;;1.80;0.60;;;15.90;99.90;;;;;;5048893;28;20021;-70
2023/10/29 11:33:06;;;;;;;5.13;0.93;;;15.90;99.90;;;;;;5048899;28;20506;-70
2023/10/29 11:35:36;;;;;;;1.95;0.68;;;15.90;99.90;;;;;;5046522;28;20079;-70
2023/10/29 11:38:22;;;;;;;0.75;0.35;;;15.90;99.90;;;;;;5049007;28;20086;-70
2023/10/29 11:40:49;;;;;;;1.63;0.55;;;16.00;99.90;;;;;;5047549;28;20137;-70
2023/10/29 11:43:22;;;;;;;2.53;0.50;;;16.00;99.90;;;;;;5048158;28;20025;-69
2023/10/29 11:46:01;;;;;;;0.85;0.45;;;16.00;99.90;;;;;;5049021;28;20029;-70
2023/10/29 11:48:29;;;;;;;4.30;0.73;;;16.00;99.90;;;;;;5047323;28;20059;-70
2023/10/29 11:51:08;;;;;;;3.97;0.50;;;16.00;99.90;;;;;;5048293;28;20036;-70
2023/10/29 11:53:35;;;;;;;2.47;0.70;;;16.00;99.90;;;;;;5046683;28;20029;-70
2023/10/29 11:56:05;;;;;;;0.77;0.40;;;16.00;99.90;;;;;;5048963;28;20029;-70
2023/10/29 11:58:31;;;;;;;3.72;0.60;;;16.10;99.90;;;;;;5048530;28;20061;-70
2023/10/29 12:01:02;;;;;;;1.58;0.52;;;16.00;99.90;;;;;;5045005;28;20029;-70
2023/10/29 12:03:32;;;;;;;5.07;0.77;;;16.10;99.90;;;;;;5035665;28;20466;-68
2023/10/29 12:06:00;;;;;;;3.40;0.60;;;16.10;99.90;;;;;;5048711;28;20052;-69
2023/10/29 12:08:26;;;;;;;;;;;16.10;99.90;;;;;;5049255;28;20095;-69
2023/10/29 12:10:55;;;;;;;1.55;0.50;;;16.10;99.90;;;;;;5041601;28;20433;-68
2023/10/29 12:13:21;;;;;;;0.93;0.60;;;16.00;99.90;;;;;;5048115;28;20047;-70
2023/10/29 12:15:49;;;;;;;1.13;0.57;;;16.00;99.90;;;;;;5049153;28;20049;-69
2023/10/29 12:18:21;;;;;;;2.42;0.60;;;16.00;99.90;;;;;;5042286;28;20047;-68
2023/10/29 12:20:51;;;;;;;0.35;0.30;;;16.00;99.90;;;;;;5048322;28;20502;-69
2023/10/29 12:23:17;;;;;;;2.20;0.50;;;16.10;99.90;;;;;;5047519;28;20040;-68
2023/10/29 12:25:43;;;;;;;2.10;0.80;;;16.00;99.90;;;;;;5044885;28;20025;-69
2023/10/29 12:28:09;;;;;;;1.27;0.40;;;16.00;99.90;;;;;;5050751;28;20029;-69
2023/10/29 12:30:50;;;;;;;0.90;0.50;;;16.00;99.90;;;;;;5050311;28;20084;-68
2023/10/29 12:33:25;;;;;;;0.77;0.43;;;16.00;99.90;;;;;;5052695;28;20017;-69
2023/10/29 12:35:53;;;;;;;0.47;0.30;;;16.00;99.90;;;;;;5048048;28;20112;-68
2023/10/29 12:38:20;;;;;;;2.10;0.47;;;16.00;99.90;;;;;;5052430;28;20040;-70
2023/10/29 12:41:06;;;;;;;4.90;0.40;;;16.00;99.90;;;;;;5048723;28;20380;-68
2023/10/29 12:43:44;;;;;;;0.70;0.50;;;16.00;99.90;;;;;;5052152;28;20470;-69
2023/10/29 12:46:19;;;;;;;6.03;1.10;;;16.00;99.90;;;;;;5052120;28;20418;-69
2023/10/29 12:49:01;;;;;;;2.30;0.60;;;16.00;99.90;;;;;;5046985;28;20116;-68
2023/10/29 12:51:32;;;;;;;3.25;0.68;;;16.00;99.90;;;;;;5052684;28;20110;-69
2023/10/29 12:54:25;;;;;;;1.27;0.60;;;15.90;99.90;;;;;;5052186;28;20068;-69